createdAt,value
2022-09-24T00:02:22.983Z,99782.38
2022-09-24T00:06:26.198Z,99776.25
2022-09-24T00:10:29.108Z,99777.97
2022-09-24T00:14:33.532Z,99777.94
2022-09-24T00:18:37.007Z,99779.69
2022-09-24T00:22:39.862Z,99777.91
2022-09-24T00:26:51.838Z,99774.38
2022-09-24T00:30:58.408Z,99764.72
2022-09-24T00:35:01.380Z,99767.34
2022-09-24T00:39:05.409Z,99765.56
2022-09-24T00:43:31.009Z,99759.44
2022-09-24T00:47:38.832Z,99763.84
2022-09-24T00:51:43.853Z,99762.94
2022-09-24T00:55:51.853Z,99753.19
2022-09-24T00:59:55.425Z,99754.06
2022-09-24T01:04:01.633Z,99747.06
2022-09-24T01:08:05.127Z,99744.41
2022-09-24T01:12:15.612Z,99745.28
2022-09-24T01:16:27.906Z,99741.78
2022-09-24T01:20:58.615Z,99739.16
2022-09-24T01:25:04.800Z,99740.03
2022-09-24T01:29:31.373Z,99734.75
2022-09-24T01:33:37.329Z,99721.59
2022-09-24T01:37:44.550Z,99727.66
2022-09-24T01:41:50.107Z,99725.03
2022-09-24T01:45:56.163Z,99733.72
2022-09-24T01:49:59.267Z,99724.09
2022-09-24T01:54:05.379Z,99724.06
2022-09-24T01:58:11.796Z,99724.97
2022-09-24T02:02:23.218Z,99717.06
2022-09-24T02:06:32.061Z,99703.91
2022-09-24T02:10:41.365Z,99706.50
2022-09-24T02:14:49.826Z,99717.88
2022-09-24T02:18:58.046Z,99711.72
2022-09-24T02:23:01.632Z,99708.16
2022-09-24T02:27:04.800Z,99703.78
2022-09-24T02:31:13.133Z,99707.22
2022-09-24T02:35:18.350Z,99705.50
2022-09-24T02:39:21.968Z,99701.06
2022-09-24T02:43:26.024Z,99704.56
2022-09-24T02:47:29.519Z,99697.53
2022-09-24T02:51:33.819Z,99699.28
2022-09-24T02:55:36.917Z,99689.63
2022-09-24T02:59:40.192Z,99688.72
2022-09-24T03:03:43.609Z,99698.38
2022-09-24T03:07:48.075Z,99691.34
2022-09-24T03:11:51.234Z,99690.50
2022-09-24T03:15:54.584Z,99686.09
2022-09-24T03:19:57.775Z,99684.38
2022-09-24T03:24:02.424Z,99681.75
2022-09-24T03:28:05.523Z,99684.34
2022-09-24T03:32:08.593Z,99680.81
2022-09-24T03:36:13.839Z,99680.78
2022-09-24T03:40:18.470Z,99678.16
2022-09-24T03:44:21.413Z,99671.13
2022-09-24T03:48:25.715Z,99680.75
2022-09-24T03:52:28.994Z,99677.25
2022-09-24T03:56:33.449Z,99683.38
2022-09-24T04:00:40.339Z,99674.59
2022-09-24T04:04:44.133Z,99669.34
2022-09-24T04:08:47.528Z,99682.47
2022-09-24T04:12:52.250Z,99694.66
2022-09-24T04:16:55.120Z,99689.41
2022-09-24T04:21:00.015Z,99684.16
2022-09-24T04:25:03.318Z,99676.25
2022-09-24T04:29:08.070Z,99678.88
2022-09-24T04:33:11.824Z,99674.47
2022-09-24T04:37:14.886Z,99675.34
2022-09-24T04:41:18.448Z,99669.22
2022-09-24T04:45:24.930Z,99675.34
2022-09-24T04:49:29.642Z,99675.31
2022-09-24T04:53:32.823Z,99674.44
2022-09-24T04:57:36.355Z,99659.53
2022-09-24T05:01:41.069Z,99670.91
2022-09-24T05:05:47.201Z,99676.19
2022-09-24T05:09:50.367Z,99670.94
2022-09-24T05:13:53.606Z,99680.53
2022-09-24T05:17:58.037Z,99681.44
2022-09-24T05:22:00.955Z,99678.81
2022-09-24T05:26:21.298Z,99682.31
2022-09-24T05:30:26.174Z,99685.84
2022-09-24T05:34:31.149Z,99686.78
2022-09-24T05:38:34.055Z,99678.94
2022-09-24T05:42:37.425Z,99680.75
2022-09-24T05:46:40.681Z,99677.31
2022-09-24T05:50:45.284Z,99686.09
2022-09-24T05:54:48.111Z,99693.19
2022-09-24T05:58:51.561Z,99702.03
2022-09-24T06:02:54.443Z,99708.19
2022-09-24T06:06:58.810Z,99707.38
2022-09-24T06:11:05.461Z,99710.03
2022-09-24T06:15:09.479Z,99709.19
2022-09-24T06:19:12.756Z,99714.50
2022-09-24T06:23:17.209Z,99711.03
2022-09-24T06:27:20.293Z,99711.97
2022-09-24T06:31:23.412Z,99696.19
2022-09-24T06:35:26.293Z,99704.13
2022-09-24T06:39:30.537Z,99693.59
2022-09-24T06:43:34.567Z,99689.25
2022-09-24T06:47:37.465Z,99689.31
2022-09-24T06:51:40.905Z,99677.06
2022-09-24T06:55:46.943Z,99669.19
2022-09-24T06:59:51.384Z,99661.31
2022-09-24T07:03:54.451Z,99667.47
2022-09-24T07:07:57.517Z,99678.00
2022-09-24T07:12:05.359Z,99676.28
2022-09-24T07:16:08.438Z,99686.81
2022-09-24T07:20:11.577Z,99685.03
2022-09-24T07:24:14.468Z,99689.41
2022-09-24T07:28:19.659Z,99697.28
2022-09-24T07:32:27.444Z,99693.78
2022-09-24T07:36:32.733Z,99688.50
2022-09-24T07:40:36.121Z,99687.59
2022-09-24T07:44:40.462Z,99686.69
2022-09-24T07:48:43.541Z,99682.22
2022-09-24T07:52:51.694Z,99695.38
2022-09-24T07:56:54.784Z,99690.94
2022-09-24T08:01:00.577Z,99686.50
2022-09-24T08:05:03.982Z,99679.38
2022-09-24T08:09:08.109Z,99668.75
2022-09-24T08:13:11.180Z,99667.81
2022-09-24T08:17:15.676Z,99677.47
2022-09-24T08:21:18.555Z,99672.09
2022-09-24T08:25:21.587Z,99673.72
2022-09-24T08:29:24.741Z,99666.63
2022-09-24T08:33:29.688Z,99671.03
2022-09-24T08:37:32.773Z,99671.81
2022-09-24T08:41:57.145Z,99675.28
2022-09-24T08:46:21.330Z,99687.44
2022-09-24T08:50:28.402Z,99685.59
2022-09-24T08:54:35.218Z,99687.22
2022-09-24T08:58:45.631Z,99688.88
2022-09-24T09:02:56.570Z,99682.66
2022-09-24T09:07:14.388Z,99684.28
2022-09-24T09:11:21.454Z,99682.47
2022-09-24T09:15:28.270Z,99688.59
2022-09-24T09:19:35.501Z,99677.00
2022-09-24T09:23:47.483Z,99671.63
2022-09-24T09:27:59.675Z,99679.34
2022-09-24T09:32:11.022Z,99678.22
2022-09-24T09:36:37.129Z,99670.00
2022-09-24T09:40:46.123Z,99666.38
2022-09-24T09:44:49.419Z,99674.28
2022-09-24T09:48:55.904Z,99667.09
2022-09-24T09:52:58.820Z,99665.06
2022-09-24T09:57:04.374Z,99654.16
2022-09-24T10:01:10.388Z,99647.81
2022-09-24T10:05:26.987Z,99655.69
2022-09-24T10:09:30.508Z,99643.97
2022-09-24T10:13:35.241Z,99646.53
2022-09-24T10:17:40.084Z,99634.97
2022-09-24T10:21:43.333Z,99627.75
2022-09-24T10:25:52.174Z,99635.44
2022-09-24T10:30:15.208Z,99620.31
2022-09-24T10:34:26.650Z,99623.88
2022-09-24T10:38:31.344Z,99625.69
2022-09-24T10:42:34.279Z,99620.16
2022-09-24T10:47:00.719Z,99626.97
2022-09-24T10:51:13.701Z,99625.94
2022-09-24T10:55:27.231Z,99623.22
2022-09-24T10:59:51.270Z,99617.69
2022-09-24T11:04:23.346Z,99618.44
2022-09-24T11:08:35.741Z,99605.91
2022-09-24T11:12:50.120Z,99603.09
2022-09-24T11:17:08.483Z,99592.38
2022-09-24T11:21:28.577Z,99591.38
2022-09-24T11:25:40.755Z,99608.81
2022-09-24T11:29:59.713Z,99606.03
2022-09-24T11:34:29.099Z,99604.94
2022-09-24T11:38:45.462Z,99602.00
2022-09-24T11:43:00.197Z,99600.75
2022-09-24T11:47:17.719Z,99598.78
2022-09-24T11:51:33.070Z,99595.25
2022-09-24T11:55:44.263Z,99597.78
2022-09-24T11:59:54.912Z,99586.00
2022-09-24T12:04:04.042Z,99586.66
2022-09-24T12:08:14.694Z,99583.69
2022-09-24T12:12:24.188Z,99583.44
2022-09-24T12:16:30.083Z,99580.38
2022-09-24T12:20:37.834Z,99573.09
2022-09-24T12:24:46.274Z,99574.72
2022-09-24T12:29:14.110Z,99576.88
2022-09-24T12:33:21.110Z,99568.56
2022-09-24T12:37:32.581Z,99572.66
2022-09-24T12:41:38.202Z,99558.25
2022-09-24T12:45:42.825Z,99551.94
2022-09-24T12:49:51.660Z,99549.94
2022-09-24T12:54:01.162Z,99546.09
2022-09-24T12:58:06.983Z,99545.78
2022-09-24T13:02:19.012Z,99546.47
2022-09-24T13:06:32.292Z,99540.25
2022-09-24T13:10:36.629Z,99539.44
2022-09-24T13:14:43.343Z,99546.59
2022-09-24T13:18:55.312Z,99539.53
2022-09-24T13:23:00.093Z,99539.38
2022-09-24T13:27:21.994Z,99528.63
2022-09-24T13:31:31.123Z,99522.28
2022-09-24T13:35:44.398Z,99520.56
2022-09-24T13:39:52.559Z,99514.53
2022-09-24T13:44:01.399Z,99506.56
2022-09-24T13:48:06.771Z,99501.28
2022-09-24T13:52:17.966Z,99504.88
2022-09-24T13:56:21.484Z,99494.22
2022-09-24T14:00:27.651Z,99499.34
2022-09-24T14:04:31.673Z,99498.47
2022-09-24T14:08:38.618Z,99502.91
2022-09-24T14:12:42.010Z,99493.25
2022-09-24T14:16:45.011Z,99496.72
2022-09-24T14:20:54.014Z,99487.88
2022-09-24T14:25:03.424Z,99488.78
2022-09-24T14:29:10.062Z,99486.13
2022-09-24T14:33:18.012Z,99476.50
2022-09-24T14:37:24.290Z,99480.06
2022-09-24T14:41:32.094Z,99480.88
2022-09-24T14:45:38.368Z,99476.38
2022-09-24T14:49:46.242Z,99487.00
2022-09-24T14:53:58.827Z,99484.34
2022-09-24T14:58:03.147Z,99477.31
2022-09-24T15:02:17.318Z,99474.63
2022-09-24T15:06:23.775Z,99473.81
2022-09-24T15:10:26.919Z,99478.44
2022-09-24T15:14:34.582Z,99481.09
2022-09-24T15:18:37.756Z,99478.44
2022-09-24T15:22:40.967Z,99478.53
2022-09-24T15:26:45.767Z,99477.72
2022-09-24T15:30:50.151Z,99480.47
2022-09-24T15:34:53.962Z,99480.53
2022-09-24T15:39:03.370Z,99480.56
2022-09-24T15:43:13.843Z,99476.25
2022-09-24T15:47:19.230Z,99467.53
2022-09-24T15:51:23.431Z,99464.00
2022-09-24T15:55:26.561Z,99459.59
2022-09-24T15:59:29.765Z,99464.94
2022-09-24T16:03:34.332Z,99459.84
2022-09-24T16:07:37.523Z,99466.22
2022-09-24T16:11:40.713Z,99459.22
2022-09-24T16:15:44.444Z,99456.69
2022-09-24T16:19:48.837Z,99463.06
2022-09-24T16:23:55.396Z,99458.81
2022-09-24T16:27:58.919Z,99466.97
2022-09-24T16:32:02.252Z,99466.25
2022-09-24T16:36:08.019Z,99473.56
2022-09-24T16:40:12.140Z,99472.00
2022-09-24T16:44:15.657Z,99469.44
2022-09-24T16:48:19.253Z,99474.03
2022-09-24T16:52:23.839Z,99469.72
2022-09-24T16:56:26.933Z,99472.63
2022-09-24T17:00:30.063Z,99472.72
2022-09-24T17:04:34.364Z,99464.00
2022-09-24T17:08:56.673Z,99474.72
2022-09-24T17:13:01.095Z,99473.09
2022-09-24T17:17:04.124Z,99489.06
2022-09-24T17:21:09.737Z,99481.97
2022-09-24T17:25:14.119Z,99485.66
2022-09-24T17:29:20.535Z,99486.59
2022-09-24T17:33:42.345Z,99484.03
2022-09-24T17:37:46.833Z,99484.22
2022-09-24T17:41:51.231Z,99478.94
2022-09-24T17:45:58.252Z,99476.47
2022-09-24T17:50:01.591Z,99473.97
2022-09-24T17:54:08.128Z,99472.41
2022-09-24T17:58:12.479Z,99473.44
2022-09-24T18:02:15.559Z,99479.66
2022-09-24T18:06:18.574Z,99473.59
2022-09-24T18:10:21.603Z,99483.47
2022-09-24T18:14:26.172Z,99483.66
2022-09-24T18:18:29.178Z,99486.44
2022-09-24T18:22:32.376Z,99490.03
2022-09-24T18:26:37.523Z,99485.66
2022-09-24T18:30:41.905Z,99478.59
2022-09-24T18:34:45.271Z,99479.63
2022-09-24T18:38:49.473Z,99471.75
2022-09-24T18:42:52.725Z,99482.47
2022-09-24T18:46:57.267Z,99476.34
2022-09-24T18:51:00.943Z,99471.16
2022-09-24T18:55:04.114Z,99480.97
2022-09-24T18:59:09.972Z,99478.38
2022-09-24T19:03:14.557Z,99474.06
2022-09-24T19:07:17.578Z,99479.44
2022-09-24T19:11:21.506Z,99472.44
2022-09-24T19:15:25.129Z,99474.38
2022-09-24T19:19:29.729Z,99472.75
2022-09-24T19:23:32.763Z,99467.53
2022-09-24T19:27:35.724Z,99467.59
2022-09-24T19:31:40.850Z,99464.19
2022-09-24T19:35:54.344Z,99465.22
2022-09-24T19:39:57.623Z,99457.34
2022-09-24T19:44:11.175Z,99464.53
2022-09-24T19:48:14.405Z,99459.31
2022-09-24T19:52:19.125Z,99455.81
2022-09-24T19:56:25.380Z,99450.53
2022-09-24T20:00:28.779Z,99465.66
2022-09-24T20:04:33.858Z,99464.91
2022-09-24T20:08:38.747Z,99475.66
2022-09-24T20:12:46.563Z,99479.28
2022-09-24T20:16:49.679Z,99484.72
2022-09-24T20:20:54.375Z,99486.63
2022-09-24T20:24:59.093Z,99476.13
2022-09-24T20:29:03.289Z,99484.22
2022-09-24T20:33:10.213Z,99485.19
2022-09-24T20:37:14.485Z,99490.63
2022-09-24T20:41:20.622Z,99483.72
2022-09-24T20:45:24.107Z,99486.47
2022-09-24T20:49:28.138Z,99487.44
2022-09-24T20:53:31.383Z,99478.72
2022-09-24T20:57:35.968Z,99477.09
2022-09-24T21:01:39.640Z,99486.94
2022-09-24T21:05:43.502Z,99474.72
2022-09-24T21:09:46.521Z,99475.63
2022-09-24T21:14:17.836Z,99469.47
2022-09-24T21:18:23.230Z,99470.44
2022-09-24T21:22:27.212Z,99476.66
2022-09-24T21:26:32.127Z,99477.66
2022-09-24T21:30:36.743Z,99483.91
2022-09-24T21:34:40.173Z,99483.13
2022-09-24T21:38:43.351Z,99486.69
2022-09-24T21:42:47.149Z,99480.56
2022-09-24T21:46:52.608Z,99480.56
2022-09-24T21:51:02.558Z,99483.22
2022-09-24T21:55:06.432Z,99483.22
2022-09-24T21:59:23.883Z,99473.56
2022-09-24T22:03:28.535Z,99476.25
2022-09-24T22:07:31.607Z,99473.63
2022-09-24T22:11:35.086Z,99478.09
2022-09-24T22:15:38.405Z,99476.41
2022-09-24T22:19:42.939Z,99479.94
2022-09-24T22:23:45.914Z,99477.31
2022-09-24T22:27:49.536Z,99471.16
2022-09-24T22:31:52.596Z,99464.13
2022-09-24T22:35:58.374Z,99464.16
2022-09-24T22:40:02.264Z,99459.78
2022-09-24T22:44:05.435Z,99455.41
2022-09-24T22:48:08.664Z,99446.63
2022-09-24T22:52:13.077Z,99450.19
2022-09-24T22:56:18.196Z,99446.72
2022-09-24T23:00:21.458Z,99455.56
2022-09-24T23:04:24.503Z,99468.78
2022-09-24T23:08:33.342Z,99464.38
2022-09-24T23:12:36.936Z,99471.47
2022-09-24T23:16:40.067Z,99475.03
2022-09-24T23:20:43.873Z,99476.78
2022-09-24T23:24:50.467Z,99475.06
2022-09-24T23:28:55.328Z,99468.00
2022-09-24T23:32:59.022Z,99463.63
2022-09-24T23:37:02.003Z,99466.31
2022-09-24T23:41:07.406Z,99465.47
2022-09-24T23:45:11.284Z,99465.53
2022-09-24T23:49:14.764Z,99472.63
2022-09-24T23:53:18.845Z,99462.91
2022-09-24T23:57:23.188Z,99455.91
